Time;durP1;ratioP1;P1;durP2;ratioP2;P2;SDS_P1;SDS_P2;PMS_P1;PMS_P2;Temp;Humidity;BMP_temperature;BMP_pressure;BME280_temperature;BME280_humidity;BME280_pressure;Samples;Min_cycle;Max_cycle;Signal;HPM_P1;HPM_P2
2023/02/24 00:00:32;;;;;;;31.50;11.68;;;2.90;99.90;;;;;;2075106;28;20217;-68
2023/02/24 00:01:38;;;;;;;39.97;12.35;;;3.00;99.90;;;;;;2066473;28;20657;-68
2023/02/24 00:02:45;;;;;;;34.40;12.45;;;3.00;99.90;;;;;;2071190;28;20177;-68
2023/02/24 00:03:55;;;;;;;29.67;10.73;;;3.10;99.90;;;;;;2071339;28;20212;-68
2023/02/24 00:05:01;;;;;;;44.90;13.90;;;3.10;99.90;;;;;;2071599;28;20183;-68
2023/02/24 00:06:10;;;;;;;44.00;13.55;;;3.10;99.90;;;;;;2071601;28;20173;-68
2023/02/24 00:07:17;;;;;;;35.60;13.40;;;3.20;99.90;;;;;;2062028;28;20666;-73
2023/02/24 00:08:23;;;;;;;17.88;9.15;;;3.30;99.90;;;;;;2070460;28;20195;-67
2023/02/24 00:09:30;;;;;;;21.58;10.18;;;3.30;99.90;;;;;;2074026;28;20184;-68
2023/02/24 00:10:36;;;;;;;19.38;9.80;;;3.40;99.90;;;;;;2071084;28;20207;-68
2023/02/24 00:11:46;;;;;;;18.60;9.27;;;3.40;99.90;;;;;;2071156;28;20190;-67
2023/02/24 00:12:52;;;;;;;22.80;10.75;;;3.50;99.90;;;;;;2068475;28;20188;-68
2023/02/24 00:13:58;;;;;;;19.75;10.05;;;3.50;99.90;;;;;;2071331;28;20215;-68
2023/02/24 00:15:04;;;;;;;17.10;8.95;;;3.50;99.90;;;;;;2072647;28;20192;-68
2023/02/24 00:16:08;;;;;;;16.55;8.30;;;3.60;99.90;;;;;;2071488;28;20201;-68
2023/02/24 00:17:14;;;;;;;19.35;7.82;;;3.50;99.90;;;;;;2071882;28;20199;-68
2023/02/24 00:18:20;;;;;;;17.02;8.30;;;3.50;99.90;;;;;;2067718;28;20181;-68
2023/02/24 00:19:32;;;;;;;14.35;7.75;;;3.50;99.90;;;;;;2071483;28;20276;-68
2023/02/24 00:20:37;;;;;;;25.50;9.88;;;3.60;99.90;;;;;;2070605;28;20769;-68
2023/02/24 00:21:44;;;;;;;22.80;11.00;;;3.60;99.90;;;;;;2070427;28;20208;-68
2023/02/24 00:22:50;;;;;;;28.80;12.43;;;3.70;99.90;;;;;;2070330;28;20744;-67
2023/02/24 00:23:58;;;;;;;27.65;10.00;;;3.70;99.90;;;;;;2066798;28;20271;-68
2023/02/24 00:25:04;;;;;;;126.05;21.05;;;3.80;99.90;;;;;;2070804;28;20189;-68
2023/02/24 00:26:12;;;;;;;44.58;14.05;;;3.80;99.90;;;;;;2070833;28;20178;-68
2023/02/24 00:27:17;;;;;;;55.22;14.23;;;3.80;99.90;;;;;;2067511;28;20220;-68
2023/02/24 00:28:23;;;;;;;53.60;14.75;;;3.80;99.90;;;;;;2070335;28;20258;-67
2023/02/24 00:29:29;;;;;;;68.82;15.27;;;3.80;99.90;;;;;;2071035;28;20182;-68
2023/02/24 00:30:35;;;;;;;55.92;15.20;;;3.70;99.90;;;;;;2071496;28;20207;-68
2023/02/24 00:31:41;;;;;;;27.00;10.77;;;3.70;99.90;;;;;;2071404;28;20187;-68
2023/02/24 00:32:47;;;;;;;44.00;14.00;;;3.70;99.90;;;;;;2071108;28;20191;-68
2023/02/24 00:33:55;;;;;;;40.67;14.98;;;3.70;99.90;;;;;;2070714;28;20190;-68
2023/02/24 00:35:01;;;;;;;42.30;14.05;;;3.80;99.90;;;;;;2069317;28;20188;-68
2023/02/24 00:36:22;;;;;;;64.57;16.48;;;3.80;99.90;;;;;;2065903;28;20201;-68
2023/02/24 00:37:28;;;;;;;39.05;14.50;;;3.80;99.90;;;;;;2065318;28;20252;-68
2023/02/24 00:38:35;;;;;;;31.20;10.57;;;3.70;99.90;;;;;;2062905;28;20585;-68
2023/02/24 00:39:43;;;;;;;34.17;13.38;;;3.70;99.90;;;;;;2061401;28;20277;-68
2023/02/24 00:40:46;;;;;;;26.92;11.27;;;3.70;99.90;;;;;;2069298;28;20203;-68
2023/02/24 00:41:52;;;;;;;22.65;10.18;;;3.70;99.90;;;;;;2069496;28;20219;-68
2023/02/24 00:42:58;;;;;;;23.08;10.27;;;3.60;99.90;;;;;;2069558;28;20189;-68
2023/02/24 00:44:07;;;;;;;22.63;9.82;;;3.70;99.90;;;;;;2066273;28;20187;-68
2023/02/24 00:45:09;;;;;;;20.10;9.85;;;3.60;99.90;;;;;;2069626;28;20271;-68
2023/02/24 00:46:19;;;;;;;26.58;11.85;;;3.70;99.90;;;;;;2069558;28;20188;-68
2023/02/24 00:47:21;;;;;;;24.58;11.02;;;3.70;99.90;;;;;;2070212;28;20197;-67
2023/02/24 00:48:27;;;;;;;23.50;9.50;;;3.70;99.90;;;;;;2069880;28;20180;-68
2023/02/24 00:49:35;;;;;;;31.13;11.85;;;3.70;99.90;;;;;;2069585;28;20186;-68
2023/02/24 00:50:40;;;;;;;21.85;9.98;;;3.60;99.90;;;;;;2068857;28;20185;-68
2023/02/24 00:51:48;;;;;;;25.95;9.40;;;3.60;99.90;;;;;;2068910;28;20197;-68
2023/02/24 00:52:53;;;;;;;19.23;8.50;;;3.50;99.90;;;;;;2065353;28;20274;-68
2023/02/24 00:53:58;;;;;;;20.20;8.65;;;3.50;99.90;;;;;;2068774;28;20681;-68
2023/02/24 00:55:13;;;;;;;25.20;9.68;;;3.60;99.90;;;;;;2069373;28;20189;-68
2023/02/24 00:56:19;;;;;;;22.13;9.23;;;3.60;99.90;;;;;;2067209;28;20183;-68
2023/02/24 00:57:25;;;;;;;35.95;11.38;;;3.60;99.90;;;;;;2069013;28;20197;-68
2023/02/24 00:58:30;;;;;;;47.90;10.38;;;3.60;99.90;;;;;;2065402;28;20197;-68
2023/02/24 00:59:37;;;;;;;28.08;10.93;;;3.70;99.90;;;;;;2069332;28;20188;-68
2023/02/24 01:00:43;;;;;;;32.92;10.70;;;3.70;99.90;;;;;;2069308;28;20197;-68
2023/02/24 01:01:49;;;;;;;32.53;11.13;;;3.70;99.90;;;;;;2069851;28;20845;-68
2023/02/24 01:02:58;;;;;;;63.53;13.77;;;3.70;99.90;;;;;;2069284;28;20732;-68
2023/02/24 01:04:10;;;;;;;32.45;11.68;;;3.70;99.90;;;;;;2065733;28;20176;-68
2023/02/24 01:05:15;;;;;;;31.80;11.70;;;3.80;99.90;;;;;;2068748;28;20204;-68
2023/02/24 01:06:25;;;;;;;44.50;10.82;;;3.80;99.90;;;;;;2069121;28;20186;-69
2023/02/24 01:07:28;;;;;;;53.15;12.85;;;3.80;99.90;;;;;;2069861;28;20276;-68
2023/02/24 01:08:37;;;;;;;127.60;21.00;;;3.90;99.90;;;;;;2069145;28;20188;-68
2023/02/24 01:09:43;;;;;;;59.00;12.95;;;3.90;99.90;;;;;;2065780;28;20220;-68
2023/02/24 01:13:26;;;;;;;224.93;26.63;;;3.90;99.90;;;;;;2064085;28;20197;-67
2023/02/24 01:14:34;;;;;;;402.88;36.33;;;3.80;99.90;;;;;;2069231;28;20189;-68
2023/02/24 01:15:37;;;;;;;317.60;35.20;;;3.60;99.90;;;;;;2068568;28;20623;-68
2023/02/24 01:16:49;;;;;;;397.70;34.78;;;3.40;99.90;;;;;;2069137;28;20201;-68
2023/02/24 01:17:54;;;;;;;405.65;35.95;;;3.30;99.90;;;;;;2069147;28;20188;-68
2023/02/24 01:19:01;;;;;;;292.73;34.72;;;3.20;99.90;;;;;;2065270;28;20604;-68
2023/02/24 01:20:16;;;;;;;206.63;26.92;;;3.10;99.90;;;;;;2069392;28;20216;-67
2023/02/24 01:21:20;;;;;;;54.92;14.10;;;3.10;99.90;;;;;;2068558;28;20267;-68
2023/02/24 01:22:25;;;;;;;25.30;12.55;;;3.00;99.90;;;;;;2068751;28;20707;-68
2023/02/24 01:23:31;;;;;;;53.83;15.57;;;3.00;99.90;;;;;;2069242;28;20243;-68
2023/02/24 01:24:39;;;;;;;36.38;12.95;;;3.10;99.90;;;;;;2065330;28;20213;-68
2023/02/24 01:25:46;;;;;;;37.83;14.95;;;3.20;99.90;;;;;;2061781;28;20331;-68
2023/02/24 01:26:51;;;;;;;32.97;11.90;;;3.30;99.90;;;;;;2069068;28;20208;-68
2023/02/24 01:27:56;;;;;;;28.35;12.63;;;3.30;99.90;;;;;;2068953;28;20193;-68
2023/02/24 01:29:08;;;;;;;25.80;10.45;;;3.40;99.90;;;;;;2069258;28;20198;-68
2023/02/24 01:30:17;;;;;;;35.35;13.35;;;3.30;99.90;;;;;;2066322;28;20571;-68
2023/02/24 01:31:19;;;;;;;27.23;10.90;;;3.40;99.90;;;;;;2060501;28;20652;-69
2023/02/24 01:32:26;;;;;;;28.88;10.82;;;3.40;99.90;;;;;;2062113;28;20187;-68
2023/02/24 01:33:36;;;;;;;23.08;11.27;;;3.40;99.90;;;;;;2069883;28;20256;-68
2023/02/24 01:34:41;;;;;;;24.35;11.40;;;3.40;99.90;;;;;;2069865;28;20192;-68
2023/02/24 01:35:44;;;;;;;23.13;10.25;;;3.40;99.90;;;;;;2069310;28;20215;-68
2023/02/24 01:36:50;;;;;;;29.48;12.13;;;3.40;99.90;;;;;;2069287;28;20685;-68
2023/02/24 01:37:55;;;;;;;29.35;10.27;;;3.30;99.90;;;;;;2068288;28;20193;-68
2023/02/24 01:39:01;;;;;;;22.40;11.45;;;3.30;99.90;;;;;;2058049;28;20691;-68
2023/02/24 01:40:10;;;;;;;25.10;10.88;;;3.20;99.90;;;;;;2068613;28;20196;-68
2023/02/24 01:41:21;;;;;;;18.38;9.30;;;3.20;99.90;;;;;;2069334;28;20192;-68
2023/02/24 01:42:27;;;;;;;19.58;9.23;;;3.20;99.90;;;;;;2071615;28;20192;-68
2023/02/24 01:43:55;;;;;;;17.05;8.63;;;3.20;99.90;;;;;;2069017;28;20277;-68
2023/02/24 01:45:15;;;;;;;24.10;9.35;;;3.30;99.90;;;;;;2068767;28;20196;-68
2023/02/24 01:46:22;;;;;;;25.40;9.98;;;3.20;99.90;;;;;;2069203;28;20194;-68
2023/02/24 01:47:30;;;;;;;25.45;10.07;;;3.20;99.90;;;;;;2065400;28;20247;-68
2023/02/24 01:48:35;;;;;;;19.08;8.85;;;3.10;99.90;;;;;;2068851;28;20664;-68
2023/02/24 01:49:44;;;;;;;19.45;9.15;;;3.10;99.90;;;;;;2069332;28;20184;-68
2023/02/24 01:50:51;;;;;;;26.67;10.75;;;3.00;99.90;;;;;;2069097;28;20180;-68
2023/02/24 01:52:07;;;;;;;25.92;10.77;;;2.90;99.90;;;;;;2069275;28;20214;-68
2023/02/24 01:53:09;;;;;;;22.30;11.75;;;2.90;99.90;;;;;;2065825;28;20181;-68
2023/02/24 01:54:20;;;;;;;26.02;10.13;;;2.90;99.90;;;;;;2066676;28;20196;-68
2023/02/24 01:55:50;;;;;;;23.63;10.75;;;3.00;99.90;;;;;;2065760;28;20558;-68
2023/02/24 01:56:57;;;;;;;23.27;8.73;;;3.00;99.90;;;;;;2066683;28;20669;-67
2023/02/24 01:58:14;;;;;;;22.70;8.52;;;3.00;99.90;;;;;;2068962;28;20206;-68
2023/02/24 01:59:22;;;;;;;27.50;10.10;;;3.00;99.90;;;;;;2066975;28;20269;-68
2023/02/24 02:00:37;;;;;;;24.17;9.07;;;3.00;99.90;;;;;;2050640;28;20227;-68
2023/02/24 02:01:44;;;;;;;23.52;10.10;;;2.90;99.90;;;;;;2065487;28;20269;-68
2023/02/24 02:02:51;;;;;;;20.42;8.52;;;2.90;99.90;;;;;;2070688;28;20653;-68
2023/02/24 02:04:04;;;;;;;27.17;10.45;;;3.00;99.90;;;;;;2068937;28;20905;-68
2023/02/24 02:05:10;;;;;;;28.98;9.75;;;3.00;99.90;;;;;;2064971;28;20222;-68
2023/02/24 02:06:16;;;;;;;39.85;12.50;;;3.00;99.90;;;;;;2061750;28;20216;-68
2023/02/24 02:07:26;;;;;;;65.18;16.33;;;3.00;99.90;;;;;;2072117;28;20240;-68
2023/02/24 02:08:36;;;;;;;159.13;21.75;;;3.00;99.90;;;;;;2061792;28;20268;-68
2023/02/24 02:09:45;;;;;;;51.78;13.07;;;3.00;99.90;;;;;;2048566;29;20214;-68
2023/02/24 02:10:57;;;;;;;37.67;13.38;;;2.90;99.90;;;;;;2061405;28;20194;-68
2023/02/24 02:12:03;;;;;;;72.22;21.77;;;2.90;99.90;;;;;;2074907;28;20182;-68
2023/02/24 02:13:05;;;;;;;88.78;21.17;;;3.00;99.90;;;;;;2068819;28;20219;-68
2023/02/24 02:14:09;;;;;;;37.30;12.55;;;3.00;99.90;;;;;;2068263;28;20189;-68
2023/02/24 02:15:19;;;;;;;54.40;14.98;;;3.10;99.90;;;;;;2068164;28;20613;-68
2023/02/24 02:16:42;;;;;;;69.85;17.95;;;3.10;99.90;;;;;;2065991;28;20188;-68
2023/02/24 02:18:17;;;;;;;70.55;20.50;;;3.10;99.90;;;;;;2067938;28;20274;-67
2023/02/24 02:19:54;;;;;;;58.65;12.70;;;3.10;99.90;;;;;;2064097;28;20826;-68
2023/02/24 02:21:58;;;;;;;66.00;13.50;;;3.20;99.90;;;;;;2062209;28;20666;-68
2023/02/24 02:23:41;;;;;;;150.90;25.90;;;3.20;99.90;;;;;;2067847;28;20639;-68
2023/02/24 02:25:08;;;;;;;97.70;22.13;;;3.10;99.90;;;;;;2065487;28;20197;-68
2023/02/24 02:26:24;;;;;;;59.35;13.55;;;3.10;99.90;;;;;;2064746;28;20176;-68
2023/02/24 02:27:58;;;;;;;34.97;12.98;;;3.10;99.90;;;;;;2064411;28;20215;-68
2023/02/24 02:29:25;;;;;;;43.47;12.93;;;3.10;99.90;;;;;;2066653;28;20183;-68
2023/02/24 02:30:43;;;;;;;38.40;14.68;;;3.20;99.90;;;;;;2066734;28;20185;-68
2023/02/24 02:32:30;;;;;;;30.67;11.43;;;3.20;99.90;;;;;;2065764;28;20614;-68
2023/02/24 02:34:04;;;;;;;68.35;14.82;;;3.20;99.90;;;;;;2065310;28;20222;-68
2023/02/24 02:35:20;;;;;;;50.53;13.60;;;3.30;99.90;;;;;;2066548;28;20215;-68
2023/02/24 02:36:54;;;;;;;55.92;14.05;;;3.20;99.90;;;;;;2064953;28;20184;-68
2023/02/24 02:38:13;;;;;;;44.97;13.15;;;3.20;99.90;;;;;;2068292;28;20185;-68
2023/02/24 02:39:47;;;;;;;34.10;12.82;;;3.10;99.90;;;;;;2065769;28;20184;-68
2023/02/24 02:41:21;;;;;;;29.17;10.07;;;3.10;99.90;;;;;;2064073;28;20209;-68
2023/02/24 02:43:09;;;;;;;22.95;9.63;;;3.10;99.90;;;;;;2060796;28;20298;-68
2023/02/24 02:44:31;;;;;;;20.33;9.45;;;3.20;99.90;;;;;;2067703;28;20189;-68
2023/02/24 02:45:46;;;;;;;21.95;9.50;;;3.20;99.90;;;;;;2055901;28;20188;-68
2023/02/24 02:47:31;;;;;;;18.02;8.48;;;3.20;99.90;;;;;;2055971;28;20196;-68
2023/02/24 02:48:48;;;;;;;28.45;10.40;;;3.10;99.90;;;;;;2064065;28;20973;-68
2023/02/24 02:50:17;;;;;;;33.35;11.18;;;3.10;99.90;;;;;;2064954;28;20855;-68
2023/02/24 02:51:32;;;;;;;23.63;9.35;;;3.10;99.90;;;;;;2065153;28;20200;-68
2023/02/24 02:52:48;;;;;;;19.92;9.20;;;3.00;99.90;;;;;;2060124;28;20189;-68
2023/02/24 02:54:20;;;;;;;21.58;9.10;;;2.90;99.90;;;;;;2063073;28;20192;-68
2023/02/24 02:55:41;;;;;;;18.80;9.13;;;2.90;99.90;;;;;;2068653;28;20192;-68
2023/02/24 02:57:00;;;;;;;19.75;8.82;;;2.90;99.90;;;;;;2068716;28;20712;-68
2023/02/24 02:58:10;;;;;;;16.63;9.35;;;3.00;99.90;;;;;;2061315;28;20190;-68
2023/02/24 02:59:22;;;;;;;17.73;9.02;;;3.10;99.90;;;;;;2064605;28;20579;-68
2023/02/24 03:00:34;;;;;;;20.65;9.05;;;3.10;99.90;;;;;;2068141;28;20192;-68
2023/02/24 03:01:51;;;;;;;16.05;8.05;;;3.10;99.90;;;;;;2065310;28;20188;-68
2023/02/24 03:03:11;;;;;;;17.65;7.97;;;3.20;99.90;;;;;;2070791;28;20187;-68
2023/02/24 03:04:21;;;;;;;15.63;8.38;;;3.10;99.90;;;;;;2069983;28;20171;-69
2023/02/24 03:05:36;;;;;;;17.75;8.88;;;3.20;99.90;;;;;;2062246;28;20178;-68
2023/02/24 03:06:47;;;;;;;14.35;7.88;;;3.10;99.90;;;;;;2062141;28;20709;-68
2023/02/24 03:07:55;;;;;;;15.90;8.27;;;3.20;99.90;;;;;;2061912;28;20671;-68
2023/02/24 03:09:17;;;;;;;17.13;8.20;;;3.10;99.90;;;;;;2061572;28;20181;-68
2023/02/24 03:10:27;;;;;;;13.73;7.55;;;3.20;99.90;;;;;;2063753;28;20189;-68
2023/02/24 03:11:32;;;;;;;19.65;8.10;;;3.10;99.90;;;;;;2062571;28;20271;-68
2023/02/24 03:12:39;;;;;;;15.15;7.20;;;3.10;99.90;;;;;;2068475;28;20670;-68
2023/02/24 03:13:49;;;;;;;17.00;7.68;;;3.10;99.90;;;;;;2064888;28;20192;-68
2023/02/24 03:15:06;;;;;;;14.07;7.38;;;3.10;99.90;;;;;;2061618;28;20187;-68
2023/02/24 03:16:11;;;;;;;13.23;7.20;;;3.10;99.90;;;;;;2054606;28;20182;-68
2023/02/24 03:17:23;;;;;;;14.48;7.45;;;3.00;99.90;;;;;;2059667;28;20183;-71
2023/02/24 03:18:38;;;;;;;15.38;7.07;;;3.00;99.90;;;;;;2062992;28;20179;-68
2023/02/24 03:19:52;;;;;;;16.73;7.20;;;2.90;99.90;;;;;;2061716;28;20225;-68
2023/02/24 03:21:14;;;;;;;26.27;9.15;;;2.90;99.90;;;;;;2070510;28;20267;-68
2023/02/24 03:22:29;;;;;;;17.80;8.35;;;3.00;99.90;;;;;;2070585;28;20220;-68
2023/02/24 03:23:44;;;;;;;20.13;7.68;;;3.00;99.90;;;;;;2065988;28;20202;-68
2023/02/24 03:24:50;;;;;;;22.40;8.52;;;2.90;99.90;;;;;;2068252;28;20273;-67
2023/02/24 03:26:16;;;;;;;16.10;7.43;;;2.90;99.90;;;;;;2068578;28;20276;-68
2023/02/24 03:27:32;;;;;;;22.20;8.88;;;2.90;99.90;;;;;;2065371;28;20176;-68
2023/02/24 03:28:59;;;;;;;15.40;7.65;;;2.90;99.90;;;;;;2064281;28;20184;-68
2023/02/24 03:30:21;;;;;;;24.45;9.02;;;2.90;99.90;;;;;;2065280;28;20702;-68
2023/02/24 03:31:48;;;;;;;21.92;8.50;;;2.90;99.90;;;;;;2064552;28;20188;-68
2023/02/24 03:33:09;;;;;;;45.72;12.05;;;2.80;99.90;;;;;;2065465;28;20243;-68
2023/02/24 03:34:37;;;;;;;30.80;12.07;;;2.90;99.90;;;;;;2065268;28;20176;-68
2023/02/24 03:35:43;;;;;;;25.55;11.10;;;2.90;99.90;;;;;;2065678;28;20568;-68
2023/02/24 03:36:49;;;;;;;48.08;13.15;;;2.80;99.90;;;;;;2067801;28;20567;-68
2023/02/24 03:37:56;;;;;;;43.72;10.57;;;2.90;99.90;;;;;;2068101;28;20272;-68
2023/02/24 03:39:04;;;;;;;15.35;7.70;;;2.80;99.90;;;;;;2068360;28;20569;-68
2023/02/24 03:40:16;;;;;;;41.53;12.32;;;2.90;99.90;;;;;;2061838;28;20236;-68
2023/02/24 03:41:21;;;;;;;27.00;9.52;;;2.90;99.90;;;;;;2062015;28;20622;-68
2023/02/24 03:42:31;;;;;;;24.30;9.57;;;2.90;99.90;;;;;;2067814;28;20228;-68
2023/02/24 03:43:44;;;;;;;24.73;10.27;;;2.90;99.90;;;;;;2064984;28;20187;-68
2023/02/24 03:44:50;;;;;;;19.25;8.35;;;2.80;99.90;;;;;;2059897;28;20196;-68
2023/02/24 03:45:57;;;;;;;18.42;8.82;;;2.90;99.90;;;;;;2051494;28;20187;-68
2023/02/24 03:47:03;;;;;;;21.52;9.35;;;2.90;99.90;;;;;;2059758;28;20179;-68
2023/02/24 03:48:07;;;;;;;19.23;7.80;;;2.80;99.90;;;;;;2067473;28;20178;-68
2023/02/24 03:49:12;;;;;;;19.88;7.80;;;2.80;99.90;;;;;;2064540;28;20180;-68
2023/02/24 03:50:20;;;;;;;20.90;8.38;;;2.80;99.90;;;;;;2059753;28;20202;-69
2023/02/24 03:51:26;;;;;;;21.83;8.52;;;2.80;99.90;;;;;;2064504;28;20219;-68
2023/02/24 03:53:11;;;;;;;15.90;8.05;;;2.80;99.90;;;;;;2068367;28;20622;-68
2023/02/24 03:55:05;;;;;;;15.52;7.13;;;2.80;99.90;;;;;;2064750;28;20182;-68
2023/02/24 03:56:48;;;;;;;12.30;6.65;;;2.70;99.90;;;;;;2063151;28;20191;-68
2023/02/24 03:58:31;;;;;;;15.75;7.15;;;2.60;99.90;;;;;;2064785;28;20199;-68
2023/02/24 04:00:33;;;;;;;12.20;6.80;;;2.60;99.90;;;;;;2063348;28;20878;-67
2023/02/24 04:01:50;;;;;;;17.02;7.40;;;2.70;99.90;;;;;;2069411;28;20681;-68
2023/02/24 04:03:24;;;;;;;17.70;8.00;;;2.70;99.90;;;;;;2068398;28;20185;-68
2023/02/24 04:04:40;;;;;;;20.23;8.65;;;2.80;99.90;;;;;;2063981;28;20620;-68
2023/02/24 04:06:09;;;;;;;20.48;8.43;;;2.80;99.90;;;;;;2062710;28;20191;-68
2023/02/24 04:07:44;;;;;;;16.38;7.57;;;2.80;99.90;;;;;;2068091;28;20267;-68
2023/02/24 04:09:01;;;;;;;20.55;8.15;;;2.80;99.90;;;;;;2065641;28;20191;-68
2023/02/24 04:10:51;;;;;;;22.65;8.30;;;2.90;99.90;;;;;;2068006;28;20318;-68
2023/02/24 04:12:18;;;;;;;24.40;8.63;;;2.90;99.90;;;;;;2060038;28;20757;-68
2023/02/24 04:13:38;;;;;;;18.42;8.23;;;2.70;99.90;;;;;;2066355;28;20199;-68
2023/02/24 04:14:55;;;;;;;17.17;7.40;;;2.80;99.90;;;;;;2068988;28;20196;-68
2023/02/24 04:16:17;;;;;;;22.25;8.35;;;2.70;99.90;;;;;;2064018;28;20219;-67
2023/02/24 04:17:38;;;;;;;22.73;8.15;;;2.80;99.90;;;;;;2065207;28;20219;-68
2023/02/24 04:18:49;;;;;;;19.02;7.93;;;2.80;99.90;;;;;;2076154;28;20221;-68
2023/02/24 04:20:00;;;;;;;27.10;10.85;;;2.80;99.90;;;;;;2075175;28;20208;-68
2023/02/24 04:21:05;;;;;;;28.90;9.13;;;2.90;99.90;;;;;;2069033;28;20239;-68
2023/02/24 04:22:13;;;;;;;19.60;8.55;;;3.00;99.90;;;;;;2062115;28;20225;-68
2023/02/24 04:23:30;;;;;;;19.85;9.40;;;3.00;99.90;;;;;;2069759;28;20721;-68
2023/02/24 04:24:38;;;;;;;21.45;9.02;;;3.00;99.90;;;;;;2065856;28;20243;-68
2023/02/24 04:25:48;;;;;;;26.23;9.52;;;3.00;99.90;;;;;;2062749;28;20192;-67
2023/02/24 04:26:57;;;;;;;21.67;8.95;;;3.10;99.90;;;;;;2059387;28;20193;-68
2023/02/24 04:28:06;;;;;;;23.25;8.80;;;3.20;99.90;;;;;;2062729;28;20189;-68
2023/02/24 04:29:16;;;;;;;19.40;8.95;;;3.20;99.90;;;;;;2062382;28;20651;-69
2023/02/24 04:30:19;;;;;;;18.85;8.85;;;3.30;99.90;;;;;;2069826;28;20201;-68
2023/02/24 04:31:26;;;;;;;22.52;8.63;;;3.30;99.90;;;;;;2069682;28;20225;-68
2023/02/24 04:32:30;;;;;;;18.75;9.82;;;3.30;99.90;;;;;;2065688;28;20275;-68
2023/02/24 04:33:39;;;;;;;24.83;10.20;;;3.30;99.90;;;;;;2069199;28;20634;-68
2023/02/24 04:34:44;;;;;;;21.98;8.45;;;3.40;99.90;;;;;;2069194;28;20208;-67
2023/02/24 04:35:50;;;;;;;19.60;8.07;;;3.40;99.90;;;;;;2066585;28;20194;-68
2023/02/24 04:36:58;;;;;;;22.23;8.93;;;3.30;99.90;;;;;;2069465;28;20259;-68
2023/02/24 04:38:04;;;;;;;24.85;9.25;;;3.40;99.90;;;;;;2069805;28;20191;-68
2023/02/24 04:39:11;;;;;;;24.02;8.45;;;3.30;99.90;;;;;;2061250;28;20189;-68
2023/02/24 04:40:20;;;;;;;17.50;8.52;;;3.30;99.90;;;;;;2062809;28;20205;-68
2023/02/24 04:41:23;;;;;;;22.30;8.65;;;3.40;99.90;;;;;;2068763;28;20202;-68
2023/02/24 04:42:28;;;;;;;25.27;9.93;;;3.30;99.90;;;;;;2068804;28;20263;-67
2023/02/24 04:43:34;;;;;;;17.38;8.70;;;3.30;99.90;;;;;;2069504;28;20189;-68
2023/02/24 04:44:41;;;;;;;15.45;8.02;;;3.20;99.90;;;;;;2066394;28;20212;-68
2023/02/24 04:45:47;;;;;;;18.27;7.93;;;3.10;99.90;;;;;;2069450;28;20646;-68
2023/02/24 04:46:53;;;;;;;13.45;7.18;;;3.10;99.90;;;;;;2068958;28;20206;-68
2023/02/24 04:48:00;;;;;;;24.35;9.13;;;3.10;99.90;;;;;;2069233;28;20193;-68
2023/02/24 04:49:04;;;;;;;22.40;9.43;;;3.10;99.90;;;;;;2069381;28;20208;-68
2023/02/24 04:50:10;;;;;;;22.08;8.75;;;3.10;99.90;;;;;;2068888;28;20254;-68
2023/02/24 04:51:16;;;;;;;24.92;9.75;;;3.00;99.90;;;;;;2069377;28;20184;-68
2023/02/24 04:52:21;;;;;;;24.65;9.85;;;3.00;99.90;;;;;;2069399;28;20202;-68
2023/02/24 04:53:27;;;;;;;19.90;9.05;;;3.00;99.90;;;;;;2069899;28;20275;-68
2023/02/24 04:54:33;;;;;;;19.25;8.43;;;2.90;99.90;;;;;;2069848;28;20253;-67
2023/02/24 04:55:47;;;;;;;19.27;9.45;;;2.90;99.90;;;;;;2069358;28;20217;-67
2023/02/24 04:56:51;;;;;;;20.52;9.63;;;2.80;99.90;;;;;;2060037;28;20180;-68
2023/02/24 04:57:53;;;;;;;20.38;9.75;;;2.90;99.90;;;;;;2068447;28;20231;-68
2023/02/24 04:58:58;;;;;;;16.88;8.75;;;2.80;99.90;;;;;;2069395;28;20259;-68
2023/02/24 05:00:19;;;;;;;17.15;8.65;;;2.80;99.90;;;;;;2065916;28;20704;-67
2023/02/24 05:01:25;;;;;;;18.95;9.38;;;2.80;99.90;;;;;;2065819;28;20191;-68
2023/02/24 05:02:30;;;;;;;14.98;7.88;;;2.80;99.90;;;;;;2069116;28;20261;-68
2023/02/24 05:03:40;;;;;;;15.93;8.70;;;2.80;99.90;;;;;;2068599;28;20181;-67
2023/02/24 05:04:41;;;;;;;17.05;8.32;;;2.80;99.90;;;;;;2068642;28;20272;-68
2023/02/24 05:05:50;;;;;;;15.23;7.65;;;2.70;99.90;;;;;;2069462;28;20262;-67
2023/02/24 05:06:56;;;;;;;15.57;7.88;;;2.70;99.90;;;;;;2068967;28;20264;-68
2023/02/24 05:08:06;;;;;;;15.50;7.43;;;2.70;99.90;;;;;;2068944;28;20274;-68
2023/02/24 05:09:16;;;;;;;16.40;7.32;;;2.70;99.90;;;;;;2069245;28;20222;-68
2023/02/24 05:10:19;;;;;;;18.80;7.85;;;2.70;99.90;;;;;;2053908;28;20229;-68
2023/02/24 05:11:24;;;;;;;13.90;7.35;;;2.60;99.90;;;;;;2061637;28;20190;-68
2023/02/24 05:12:31;;;;;;;12.90;6.47;;;2.60;99.90;;;;;;2076142;28;20198;-67
2023/02/24 05:13:36;;;;;;;21.20;7.90;;;2.50;99.90;;;;;;2073203;28;20285;-67
2023/02/24 05:14:42;;;;;;;15.52;7.38;;;2.50;99.90;;;;;;2069372;28;20187;-68
2023/02/24 05:15:48;;;;;;;17.88;7.57;;;2.50;99.90;;;;;;2069523;28;20546;-68
2023/02/24 05:16:58;;;;;;;13.13;7.57;;;2.40;99.90;;;;;;2069851;28;20285;-68
2023/02/24 05:18:06;;;;;;;18.13;8.15;;;2.30;99.90;;;;;;2070042;28;20205;-68
2023/02/24 05:22:03;;;;;;;17.35;7.85;;;2.30;99.90;;;;;;2068470;28;20230;-68
2023/02/24 05:23:05;;;;;;;14.65;7.57;;;2.30;99.90;;;;;;2068590;28;20208;-68
2023/02/24 05:24:10;;;;;;;20.02;9.02;;;2.30;99.90;;;;;;2069070;28;20675;-67
2023/02/24 05:25:15;;;;;;;13.45;7.60;;;2.30;99.90;;;;;;2066045;28;20278;-68
2023/02/24 05:26:25;;;;;;;13.50;7.60;;;2.30;99.90;;;;;;2069149;28;20219;-67
2023/02/24 05:27:28;;;;;;;25.23;9.25;;;2.30;99.90;;;;;;2068655;28;20184;-68
2023/02/24 05:28:36;;;;;;;20.30;9.45;;;2.30;99.90;;;;;;2069027;28;20182;-67
2023/02/24 05:29:42;;;;;;;19.00;9.10;;;2.30;99.90;;;;;;2069514;28;20188;-68
2023/02/24 05:30:47;;;;;;;17.05;8.02;;;2.30;99.90;;;;;;2065571;28;20660;-67
2023/02/24 05:31:58;;;;;;;17.42;9.23;;;2.30;99.90;;;;;;2068940;28;20193;-67
2023/02/24 05:33:06;;;;;;;17.48;8.50;;;2.30;99.90;;;;;;2069344;28;20250;-68
2023/02/24 05:34:15;;;;;;;17.73;8.80;;;2.40;99.90;;;;;;2069616;28;20183;-67
2023/02/24 05:35:21;;;;;;;23.30;9.50;;;2.40;99.90;;;;;;2069518;28;20193;-67
2023/02/24 05:36:32;;;;;;;20.00;9.40;;;2.40;99.90;;;;;;2066143;28;20243;-67
2023/02/24 05:37:40;;;;;;;17.65;8.77;;;2.50;99.90;;;;;;2068280;28;20186;-67
2023/02/24 05:38:54;;;;;;;19.02;9.45;;;2.50;99.90;;;;;;2065569;28;20187;-68
2023/02/24 05:39:59;;;;;;;20.85;9.95;;;2.40;99.90;;;;;;2068935;28;20208;-68
2023/02/24 05:41:07;;;;;;;22.40;10.75;;;2.50;99.90;;;;;;2065054;28;20734;-68
2023/02/24 05:42:10;;;;;;;17.98;9.90;;;2.50;99.90;;;;;;2068230;28;20231;-67
2023/02/24 05:43:17;;;;;;;20.50;9.73;;;2.50;99.90;;;;;;2069083;28;20552;-68
2023/02/24 05:44:25;;;;;;;22.67;9.23;;;2.50;99.90;;;;;;2065855;28;20278;-68
2023/02/24 05:45:32;;;;;;;17.77;7.93;;;2.50;99.90;;;;;;2064531;28;20755;-68
2023/02/24 05:46:41;;;;;;;19.23;8.52;;;2.50;99.90;;;;;;2058353;28;20215;-68
2023/02/24 05:47:47;;;;;;;16.92;6.78;;;2.50;99.90;;;;;;2068817;28;20180;-68
2023/02/24 05:49:25;;;;;;;16.88;8.35;;;2.50;99.90;;;;;;2069049;28;20558;-68
2023/02/24 05:50:31;;;;;;;17.75;8.40;;;2.50;99.90;;;;;;2067212;28;20667;-67
2023/02/24 05:51:42;;;;;;;18.48;6.85;;;2.50;99.90;;;;;;2069020;28;20209;-68
2023/02/24 05:52:47;;;;;;;13.35;6.88;;;2.50;99.90;;;;;;2059044;28;20215;-67
2023/02/24 05:53:54;;;;;;;20.00;8.45;;;2.50;99.90;;;;;;2065029;28;20279;-68
2023/02/24 05:55:01;;;;;;;25.35;7.88;;;2.50;99.90;;;;;;2069319;28;20667;-68
2023/02/24 05:56:04;;;;;;;15.75;7.65;;;2.50;99.90;;;;;;2069293;28;20190;-68
2023/02/24 05:57:19;;;;;;;18.10;8.35;;;2.50;99.90;;;;;;2069457;28;20202;-67
2023/02/24 05:58:27;;;;;;;19.55;7.85;;;2.50;99.90;;;;;;2066023;28;20672;-67
2023/02/24 05:59:34;;;;;;;15.05;7.78;;;2.50;99.90;;;;;;2065712;28;20184;-68
2023/02/24 06:00:39;;;;;;;18.17;7.45;;;2.40;99.90;;;;;;2055545;28;20189;-68
2023/02/24 06:01:46;;;;;;;19.50;7.30;;;2.40;99.90;;;;;;2068860;28;20177;-68
2023/02/24 06:02:51;;;;;;;16.73;7.90;;;2.40;99.90;;;;;;2068621;28;20186;-68
2023/02/24 06:04:06;;;;;;;18.48;7.93;;;2.40;99.90;;;;;;2065857;28;20874;-67
2023/02/24 06:05:24;;;;;;;27.05;9.25;;;2.40;99.90;;;;;;2068095;28;20605;-67
2023/02/24 06:06:36;;;;;;;39.70;10.32;;;2.40;99.90;;;;;;2068423;28;20686;-68
2023/02/24 06:07:46;;;;;;;26.95;11.32;;;2.50;99.90;;;;;;2065668;28;20700;-67
2023/02/24 06:08:54;;;;;;;39.47;12.20;;;2.50;99.90;;;;;;2068881;28;20197;-68
2023/02/24 06:10:03;;;;;;;42.45;13.15;;;2.50;99.90;;;;;;2065334;28;20233;-67
2023/02/24 06:11:07;;;;;;;37.83;11.85;;;2.50;99.90;;;;;;2068650;28;20233;-68
2023/02/24 06:12:13;;;;;;;80.35;17.00;;;2.60;99.90;;;;;;2068734;28;20187;-68
2023/02/24 06:13:19;;;;;;;54.08;15.88;;;2.60;99.90;;;;;;2065292;28;20549;-67
2023/02/24 06:14:24;;;;;;;47.38;13.88;;;2.60;99.90;;;;;;2068232;28;20195;-68
2023/02/24 06:15:31;;;;;;;47.08;12.93;;;2.60;99.90;;;;;;2068269;28;20596;-68
2023/02/24 06:16:39;;;;;;;31.95;11.45;;;2.60;99.90;;;;;;2068845;28;20889;-67